Hovedside
METAR-TAF:

METAR-TAF

Lufthavner :

Pasto, Colombia

breddegrad: 01-25N, lengdegrad: 077-16W, høyde over havet: 1826 m

Gjeldene værobservasjon

Denne rapporten ble laget for 28 minutter siden, klokken 15:00 UTC
Vind 7 kt fra Nord, skiftende mellom Nordvest og Øst-nordøst
Temperatur 19°C
Luftfuktighet 88%
Trykk 1022 hPa
Sikt: 3000 m
Spredte skyer i en høyde av 1500 ft
tåkebanker,

METAR: SKPS 041500Z 36007KT 320V070 9999 3000N BCFG SCT015 19/17 Q1022

Tid: 10:28 (15:28 UTC)


TAF: fraværende

Værobservasjoner og værvarsel for over 4000 flyplasser (METAR- og TAF-rapporter).

Tilgjengelige stasjoner er representert av de røde og gule prikkene på kartet.

Hold musepekeren over prikken for å se navnet på stasjonen.

Klikk så for å se værobservasjoner og -varsler.

For å forandre kartet kan du klikke på den grønne knappen med svart kryss for å zoome inn, på den grønne knappen med strek for å zoome ut, eller på de grønne pilene for å se tilstøtende kart.


METAR-TAF: